createdAt,value
2016-12-09T00:00:25.064Z,0
2016-12-09T00:01:25.048Z,0
2016-12-09T00:02:25.050Z,0
2016-12-09T00:03:25.010Z,0
2016-12-09T00:04:24.993Z,0
2016-12-09T00:05:25.002Z,0
2016-12-09T00:06:24.959Z,0
2016-12-09T00:07:24.953Z,0
2016-12-09T00:08:24.934Z,0
2016-12-09T00:09:25.629Z,0
2016-12-09T00:10:24.908Z,0
2016-12-09T00:11:24.872Z,0
2016-12-09T00:12:24.854Z,0
2016-12-09T00:13:24.840Z,0
2016-12-09T00:14:24.822Z,0
2016-12-09T00:15:24.795Z,0
2016-12-09T00:16:24.777Z,0
2016-12-09T00:17:24.768Z,0
2016-12-09T00:18:24.750Z,0
2016-12-09T00:19:24.729Z,0
2016-12-09T00:20:25.023Z,0
2016-12-09T00:21:24.692Z,0
2016-12-09T00:22:25.032Z,0
2016-12-09T00:23:24.664Z,0
2016-12-09T00:24:24.645Z,0
2016-12-09T00:25:24.621Z,0
2016-12-09T00:26:24.609Z,0
2016-12-09T00:27:24.898Z,0
2016-12-09T00:28:25.194Z,0
2016-12-09T00:29:24.601Z,0
2016-12-09T00:30:24.532Z,0
2016-12-09T00:31:24.572Z,0
2016-12-09T00:32:25.126Z,0
2016-12-09T00:33:24.490Z,0
2016-12-09T00:34:24.461Z,0
2016-12-09T00:35:24.761Z,0
2016-12-09T00:36:24.434Z,0
2016-12-09T00:37:24.412Z,0
2016-12-09T00:38:24.710Z,0
2016-12-09T00:39:24.378Z,0
2016-12-09T00:40:24.988Z,0
2016-12-09T00:41:24.343Z,0
2016-12-09T00:42:24.634Z,0
2016-12-09T00:43:24.933Z,0
2016-12-09T00:44:24.287Z,0
2016-12-09T00:45:24.582Z,0
2016-12-09T00:46:24.259Z,0
2016-12-09T00:47:24.235Z,0
2016-12-09T00:48:24.219Z,0
2016-12-09T00:49:24.199Z,0
2016-12-09T00:50:24.182Z,0
2016-12-09T00:51:24.478Z,0
2016-12-09T00:52:24.147Z,0
2016-12-09T00:53:24.442Z,0
2016-12-09T00:54:24.757Z,0
2016-12-09T00:55:24.117Z,0
2016-12-09T00:56:24.411Z,0
2016-12-09T00:57:24.374Z,0
2016-12-09T00:58:24.048Z,0
2016-12-09T00:59:24.035Z,0
2016-12-09T01:00:24.014Z,0
2016-12-09T01:01:23.994Z,0
2016-12-09T01:02:24.335Z,0
2016-12-09T01:03:24.265Z,0
2016-12-09T01:04:23.937Z,0
2016-12-09T01:05:23.922Z,0
2016-12-09T01:06:24.216Z,0
2016-12-09T01:07:23.886Z,0
2016-12-09T01:08:24.815Z,0
2016-12-09T01:09:24.159Z,0
2016-12-09T01:10:24.143Z,0
2016-12-09T01:11:23.815Z,0
2016-12-09T01:12:24.113Z,0
2016-12-09T01:13:23.787Z,0
2016-12-09T01:14:23.771Z,0
2016-12-09T01:15:23.748Z,0
2016-12-09T01:16:23.743Z,0
2016-12-09T01:17:23.709Z,0
2016-12-09T01:18:23.685Z,0
2016-12-09T01:19:23.724Z,0
2016-12-09T01:20:23.655Z,0
2016-12-09T01:21:23.668Z,0
2016-12-09T01:22:23.933Z,0
2016-12-09T01:23:23.604Z,0
2016-12-09T01:24:23.585Z,0
2016-12-09T01:25:23.566Z,0
2016-12-09T01:26:23.551Z,0
2016-12-09T01:27:23.538Z,0
2016-12-09T01:28:23.523Z,0
2016-12-09T01:29:23.814Z,0
2016-12-09T01:30:23.875Z,0
2016-12-09T01:31:23.467Z,0
2016-12-09T01:32:23.760Z,0
2016-12-09T01:33:23.434Z,0
2016-12-09T01:34:23.413Z,0
2016-12-09T01:35:23.421Z,0
2016-12-09T01:36:23.688Z,0
2016-12-09T01:37:23.677Z,0
2016-12-09T01:38:23.347Z,0
2016-12-09T01:39:23.327Z,0
2016-12-09T01:40:23.311Z,0
2016-12-09T01:41:23.654Z,0
2016-12-09T01:42:23.293Z,0
2016-12-09T01:43:23.273Z,0
2016-12-09T01:44:23.869Z,0
2016-12-09T01:45:23.230Z,0
2016-12-09T01:46:23.523Z,0
2016-12-09T01:47:23.814Z,0
2016-12-09T01:48:23.168Z,0
2016-12-09T01:49:23.155Z,0
2016-12-09T01:50:23.139Z,0
2016-12-09T01:51:23.424Z,0
2016-12-09T01:52:23.417Z,0
2016-12-09T01:53:23.086Z,0
2016-12-09T01:54:23.383Z,0
2016-12-09T01:55:23.062Z,0
2016-12-09T01:56:23.053Z,0
2016-12-09T01:57:23.081Z,0
2016-12-09T01:58:23.004Z,0
2016-12-09T01:59:22.983Z,0
2016-12-09T02:00:23.326Z,0
2016-12-09T02:01:23.258Z,0
2016-12-09T02:02:23.240Z,0
2016-12-09T02:03:22.909Z,0
2016-12-09T02:04:22.894Z,0
2016-12-09T02:05:22.883Z,0
2016-12-09T02:06:23.172Z,0
2016-12-09T02:07:23.158Z,0
2016-12-09T02:08:22.834Z,0
2016-12-09T02:09:23.011Z,0
2016-12-09T02:10:22.808Z,0
2016-12-09T02:11:22.793Z,0
2016-12-09T02:12:22.762Z,0
2016-12-09T02:13:22.740Z,0
2016-12-09T02:14:23.056Z,0
2016-12-09T02:15:22.711Z,0
2016-12-09T02:16:22.692Z,0
2016-12-09T02:17:22.711Z,0
2016-12-09T02:18:22.977Z,0
2016-12-09T02:19:22.642Z,0
2016-12-09T02:20:22.619Z,0
2016-12-09T02:21:22.920Z,0
2016-12-09T02:22:22.587Z,0
2016-12-09T02:23:23.190Z,0
2016-12-09T02:24:22.554Z,0
2016-12-09T02:25:22.531Z,0
2016-12-09T02:26:22.823Z,0
2016-12-09T02:27:22.500Z,0
2016-12-09T02:28:22.476Z,0
2016-12-09T02:29:22.776Z,0
2016-12-09T02:30:22.468Z,0
2016-12-09T02:31:22.744Z,0
2016-12-09T02:32:22.407Z,0
2016-12-09T02:33:22.391Z,0
2016-12-09T02:34:22.369Z,0
2016-12-09T02:35:22.360Z,0
2016-12-09T02:36:22.335Z,0
2016-12-09T02:37:22.322Z,0
2016-12-09T02:38:22.304Z,0
2016-12-09T02:39:22.595Z,0
2016-12-09T02:40:22.278Z,0
2016-12-09T02:41:22.254Z,0
2016-12-09T02:42:22.237Z,0
2016-12-09T02:43:22.218Z,0
2016-12-09T02:44:22.196Z,0
2016-12-09T02:45:22.234Z,0
2016-12-09T02:46:22.168Z,0
2016-12-09T02:47:22.143Z,0
2016-12-09T02:48:22.441Z,0
2016-12-09T02:49:22.419Z,0
2016-12-09T02:50:22.093Z,0
2016-12-09T02:51:22.391Z,0
2016-12-09T02:52:22.064Z,0
2016-12-09T02:53:22.049Z,0
2016-12-09T02:54:22.029Z,0
2016-12-09T02:55:22.015Z,0
2016-12-09T02:56:21.991Z,0
2016-12-09T02:57:22.287Z,0
2016-12-09T02:58:22.273Z,0
2016-12-09T02:59:21.940Z,0
2016-12-09T03:00:22.236Z,0
2016-12-09T03:01:21.905Z,0
2016-12-09T03:02:21.885Z,0
2016-12-09T03:03:21.872Z,0
2016-12-09T03:04:21.866Z,0
2016-12-09T03:05:22.145Z,0
2016-12-09T03:06:21.817Z,0
2016-12-09T03:07:21.806Z,0
2016-12-09T03:08:21.809Z,0
2016-12-09T03:09:21.770Z,0
2016-12-09T03:10:21.754Z,0
2016-12-09T03:11:21.733Z,0
2016-12-09T03:12:21.710Z,0
2016-12-09T03:13:21.705Z,0
2016-12-09T03:14:21.679Z,0
2016-12-09T03:15:21.669Z,0
2016-12-09T03:16:21.653Z,0
2016-12-09T03:17:21.937Z,0
2016-12-09T03:18:21.925Z,0
2016-12-09T03:19:21.915Z,0
2016-12-09T03:20:21.577Z,0
2016-12-09T03:21:21.563Z,0
2016-12-09T03:22:21.545Z,0
2016-12-09T03:23:21.538Z,0
2016-12-09T03:24:21.530Z,0
2016-12-09T03:25:21.501Z,0
2016-12-09T03:26:21.476Z,0
2016-12-09T03:27:21.772Z,0
2016-12-09T03:28:21.442Z,0
2016-12-09T03:29:21.437Z,0
2016-12-09T03:30:21.458Z,0
2016-12-09T03:31:21.389Z,0
2016-12-09T03:32:21.460Z,0
2016-12-09T03:33:21.668Z,0
2016-12-09T03:34:21.344Z,0
2016-12-09T03:35:21.632Z,0
2016-12-09T03:36:21.618Z,0
2016-12-09T03:37:21.314Z,0
2016-12-09T03:38:21.266Z,0
2016-12-09T03:39:21.253Z,0
2016-12-09T03:40:21.557Z,0
2016-12-09T03:41:21.533Z,0
2016-12-09T03:42:21.207Z,0
2016-12-09T03:43:21.504Z,0
2016-12-09T03:44:21.478Z,0
2016-12-09T03:45:21.189Z,0
2016-12-09T03:46:21.146Z,0
2016-12-09T03:47:21.130Z,0
2016-12-09T03:48:21.108Z,0
2016-12-09T03:49:21.434Z,0
2016-12-09T03:50:21.071Z,0
2016-12-09T03:51:21.046Z,0
2016-12-09T03:52:21.658Z,0
2016-12-09T03:53:21.016Z,0
2016-12-09T03:54:21.404Z,0
2016-12-09T03:55:21.292Z,0
2016-12-09T03:56:20.961Z,0
2016-12-09T03:57:21.251Z,0
2016-12-09T03:58:21.259Z,0
2016-12-09T03:59:20.957Z,0
2016-12-09T04:00:21.203Z,0
2016-12-09T04:01:21.244Z,0
2016-12-09T04:02:21.191Z,0
2016-12-09T04:03:20.838Z,0
2016-12-09T04:04:20.818Z,0
2016-12-09T04:05:20.801Z,0
2016-12-09T04:06:21.117Z,0
2016-12-09T04:07:20.765Z,0
2016-12-09T04:08:21.058Z,0
2016-12-09T04:09:20.731Z,0
2016-12-09T04:10:20.914Z,0
2016-12-09T04:11:21.020Z,0
2016-12-09T04:12:20.990Z,0
2016-12-09T04:13:20.662Z,0
2016-12-09T04:14:20.641Z,0
2016-12-09T04:15:20.624Z,0
2016-12-09T04:16:20.608Z,0
2016-12-09T04:17:20.895Z,0
2016-12-09T04:18:20.577Z,0
2016-12-09T04:19:20.548Z,0
2016-12-09T04:20:20.863Z,0
2016-12-09T04:21:20.831Z,0
2016-12-09T04:22:20.810Z,0
2016-12-09T04:23:20.484Z,0
2016-12-09T04:24:20.460Z,0
2016-12-09T04:25:20.455Z,0
2016-12-09T04:26:20.750Z,0
2016-12-09T04:27:20.725Z,0
2016-12-09T04:28:20.406Z,0
2016-12-09T04:29:20.374Z,0
2016-12-09T04:30:20.385Z,0
2016-12-09T04:31:20.654Z,0
2016-12-09T04:32:20.634Z,0
2016-12-09T04:33:20.311Z,0
2016-12-09T04:34:20.284Z,0
2016-12-09T04:35:20.268Z,0
2016-12-09T04:36:20.250Z,0
2016-12-09T04:37:20.231Z,0
2016-12-09T04:38:20.217Z,0
2016-12-09T04:39:20.195Z,0
2016-12-09T04:40:20.179Z,0
2016-12-09T04:41:20.475Z,0
2016-12-09T04:42:20.458Z,0
2016-12-09T04:43:20.440Z,0
2016-12-09T04:44:20.118Z,0
2016-12-09T04:45:20.402Z,0
2016-12-09T04:46:20.075Z,0
2016-12-09T04:47:20.081Z,0
2016-12-09T04:48:20.351Z,0
2016-12-09T04:49:20.023Z,0
2016-12-09T04:50:20.006Z,0
2016-12-09T04:51:19.991Z,0
2016-12-09T04:52:20.287Z,0
2016-12-09T04:53:19.968Z,0
2016-12-09T04:54:19.948Z,0
2016-12-09T04:55:20.597Z,0
2016-12-09T04:56:19.912Z,0
2016-12-09T04:57:19.889Z,0
2016-12-09T04:58:19.870Z,0
2016-12-09T04:59:19.846Z,0
2016-12-09T05:00:20.145Z,0
2016-12-09T05:01:19.813Z,0
2016-12-09T05:02:19.782Z,0
2016-12-09T05:03:19.772Z,0
2016-12-09T05:04:20.096Z,0
2016-12-09T05:05:19.729Z,0
2016-12-09T05:06:19.726Z,0
2016-12-09T05:07:20.046Z,0
2016-12-09T05:08:19.995Z,0
2016-12-09T05:09:19.664Z,0
2016-12-09T05:10:19.969Z,0
2016-12-09T05:11:19.629Z,0
2016-12-09T05:12:19.927Z,0
2016-12-09T05:13:19.599Z,0
2016-12-09T05:14:19.576Z,0
2016-12-09T05:15:19.904Z,0
2016-12-09T05:16:19.868Z,0
2016-12-09T05:17:19.531Z,0
2016-12-09T05:18:19.844Z,0
2016-12-09T05:19:19.821Z,0
2016-12-09T05:20:20.110Z,0
2016-12-09T05:21:19.459Z,0
2016-12-09T05:22:19.490Z,0
2016-12-09T05:23:19.423Z,0
2016-12-09T05:24:19.400Z,0
2016-12-09T05:25:19.709Z,0
2016-12-09T05:26:19.371Z,0
2016-12-09T05:27:19.381Z,0
2016-12-09T05:28:19.340Z,0
2016-12-09T05:29:19.626Z,0
2016-12-09T05:30:19.922Z,0
2016-12-09T05:31:19.599Z,0
2016-12-09T05:32:19.265Z,0
2016-12-09T05:33:19.266Z,0
2016-12-09T05:34:19.228Z,0
2016-12-09T05:35:19.528Z,0
2016-12-09T05:36:19.203Z,0
2016-12-09T05:37:19.176Z,0
2016-12-09T05:38:19.484Z,0
2016-12-09T05:39:19.143Z,0
2016-12-09T05:40:19.440Z,0
2016-12-09T05:41:19.782Z,0
2016-12-09T05:42:19.112Z,0
2016-12-09T05:43:19.105Z,0
2016-12-09T05:44:19.374Z,0
2016-12-09T05:45:19.046Z,0
2016-12-09T05:46:19.349Z,0
2016-12-09T05:47:19.003Z,0
2016-12-09T05:48:18.982Z,0
2016-12-09T05:49:18.963Z,0
2016-12-09T05:50:19.266Z,0
2016-12-09T05:51:19.250Z,0
2016-12-09T05:52:18.927Z,0
2016-12-09T05:53:18.896Z,0
2016-12-09T05:54:19.194Z,0
2016-12-09T05:55:19.224Z,0
2016-12-09T05:56:19.161Z,0
2016-12-09T05:57:18.839Z,0
2016-12-09T05:58:18.810Z,0
2016-12-09T05:59:18.792Z,0
2016-12-09T06:00:18.776Z,0
2016-12-09T06:01:19.069Z,0
2016-12-09T06:02:19.049Z,0
2016-12-09T06:03:18.720Z,0
2016-12-09T06:04:18.701Z,0
2016-12-09T06:05:18.688Z,0
2016-12-09T06:06:18.662Z,0
2016-12-09T06:07:18.656Z,0
2016-12-09T06:08:18.668Z,0
2016-12-09T06:09:18.621Z,0
2016-12-09T06:10:19.126Z,0
2016-12-09T06:11:18.902Z,0
2016-12-09T06:12:18.873Z,0
2016-12-09T06:13:18.547Z,0
2016-12-09T06:14:18.524Z,0
2016-12-09T06:15:18.517Z,0
2016-12-09T06:16:18.807Z,0
2016-12-09T06:17:18.476Z,0
2016-12-09T06:18:18.460Z,0
2016-12-09T06:19:18.474Z,0
2016-12-09T06:20:18.745Z,0
2016-12-09T06:21:18.399Z,0
2016-12-09T06:22:18.391Z,0
2016-12-09T06:23:18.679Z,0
2016-12-09T06:24:18.368Z,0
2016-12-09T06:25:18.690Z,0
2016-12-09T06:26:18.951Z,0
2016-12-09T06:27:18.624Z,0
2016-12-09T06:28:19.603Z,0
2016-12-09T06:29:18.905Z,0
2016-12-09T06:30:18.290Z,0
2016-12-09T06:31:18.227Z,0
2016-12-09T06:32:18.226Z,0
2016-12-09T06:33:19.153Z,0
2016-12-09T06:34:18.190Z,0
2016-12-09T06:35:18.165Z,0
2016-12-09T06:36:18.454Z,0
2016-12-09T06:37:18.756Z,0
2016-12-09T06:38:18.423Z,0
2016-12-09T06:39:18.089Z,0
2016-12-09T06:40:18.387Z,0
2016-12-09T06:41:18.058Z,0
2016-12-09T06:42:18.040Z,0
2016-12-09T06:43:18.338Z,0
2016-12-09T06:44:18.002Z,0
2016-12-09T06:45:17.995Z,0
2016-12-09T06:46:17.973Z,0
2016-12-09T06:47:17.960Z,0
2016-12-09T06:48:17.941Z,0
2016-12-09T06:49:17.922Z,0
2016-12-09T06:50:17.898Z,0
2016-12-09T06:51:18.511Z,0
2016-12-09T06:52:17.873Z,0
2016-12-09T06:53:17.855Z,0
2016-12-09T06:54:18.149Z,0
2016-12-09T06:55:18.130Z,0
2016-12-09T06:56:17.810Z,0
2016-12-09T06:57:17.786Z,0
2016-12-09T06:58:18.080Z,0
2016-12-09T06:59:17.749Z,0
2016-12-09T07:00:17.734Z,0
2016-12-09T07:01:18.026Z,0
2016-12-09T07:02:17.699Z,0
2016-12-09T07:03:17.688Z,0
2016-12-09T07:04:18.008Z,0
2016-12-09T07:05:17.964Z,0
2016-12-09T07:06:17.941Z,0
2016-12-09T07:07:17.936Z,0
2016-12-09T07:08:17.616Z,0
2016-12-09T07:09:17.893Z,0
2016-12-09T07:10:17.561Z,0
2016-12-09T07:11:17.546Z,0
2016-12-09T07:12:17.523Z,0
2016-12-09T07:13:17.513Z,0
2016-12-09T07:14:17.495Z,0
2016-12-09T07:15:17.474Z,0
2016-12-09T07:16:17.781Z,0
2016-12-09T07:17:17.440Z,0
2016-12-09T07:18:17.423Z,0
2016-12-09T07:19:17.723Z,0
2016-12-09T07:20:17.387Z,0
2016-12-09T07:21:17.405Z,0
2016-12-09T07:22:17.373Z,0
2016-12-09T07:23:17.659Z,0
2016-12-09T07:24:17.324Z,0
2016-12-09T07:25:17.313Z,0
2016-12-09T07:26:17.599Z,0
2016-12-09T07:27:17.271Z,0
2016-12-09T07:28:17.260Z,0
2016-12-09T07:29:17.239Z,0
2016-12-09T07:30:17.220Z,0
2016-12-09T07:31:17.207Z,0
2016-12-09T07:32:17.821Z,0
2016-12-09T07:33:17.177Z,0
2016-12-09T07:34:17.152Z,0
2016-12-09T07:35:17.448Z,0
2016-12-09T07:36:17.428Z,5
2016-12-09T07:37:17.419Z,5
2016-12-09T07:38:17.130Z,5
2016-12-09T07:39:17.068Z,5
2016-12-09T07:40:17.081Z,5
2016-12-09T07:41:17.031Z,5
2016-12-09T07:42:17.027Z,5
2016-12-09T07:43:16.994Z,5
2016-12-09T07:44:16.977Z,5
2016-12-09T07:45:16.965Z,5
2016-12-09T07:46:17.254Z,5
2016-12-09T07:47:16.928Z,5
2016-12-09T07:48:17.224Z,5
2016-12-09T07:49:17.214Z,5
2016-12-09T07:50:16.871Z,10
2016-12-09T07:51:16.864Z,10
2016-12-09T07:52:16.842Z,10
2016-12-09T07:53:17.131Z,10
2016-12-09T07:54:16.892Z,15
2016-12-09T07:55:16.802Z,15
2016-12-09T07:56:16.775Z,15
2016-12-09T07:57:17.070Z,15
2016-12-09T07:58:16.751Z,20
2016-12-09T07:59:16.729Z,15
2016-12-09T08:00:16.709Z,15
2016-12-09T08:01:16.691Z,15
2016-12-09T08:02:16.677Z,15
2016-12-09T08:03:16.990Z,15
2016-12-09T08:04:16.643Z,20
2016-12-09T08:05:16.620Z,20
2016-12-09T08:06:16.606Z,25
2016-12-09T08:07:16.908Z,25
2016-12-09T08:08:16.929Z,25
2016-12-09T08:09:16.547Z,25
2016-12-09T08:10:16.744Z,25
2016-12-09T08:11:16.515Z,30
2016-12-09T08:12:16.499Z,30
2016-12-09T08:13:16.480Z,40
2016-12-09T08:14:16.472Z,40
2016-12-09T08:15:16.454Z,40
2016-12-09T08:16:16.754Z,50
2016-12-09T08:17:16.419Z,50
2016-12-09T08:18:16.714Z,45
2016-12-09T08:19:16.702Z,40
2016-12-09T08:20:16.369Z,45
2016-12-09T08:21:16.350Z,50
2016-12-09T08:22:16.332Z,45
2016-12-09T08:23:16.636Z,45
2016-12-09T08:24:16.667Z,50
2016-12-09T08:25:16.288Z,50
2016-12-09T08:26:17.222Z,50
2016-12-09T08:27:16.261Z,50
2016-12-09T08:28:16.236Z,55
2016-12-09T08:29:16.221Z,55
2016-12-09T08:30:16.202Z,60
2016-12-09T08:31:16.190Z,60
2016-12-09T08:32:16.225Z,60
2016-12-09T08:33:16.155Z,60
2016-12-09T08:34:16.455Z,65
2016-12-09T08:35:16.447Z,70
2016-12-09T08:36:16.100Z,65
2016-12-09T08:37:16.146Z,65
2016-12-09T08:38:16.089Z,65
2016-12-09T08:39:16.692Z,65
2016-12-09T08:40:16.042Z,65
2016-12-09T08:41:16.023Z,65
2016-12-09T08:42:16.011Z,70
2016-12-09T08:43:16.312Z,80
2016-12-09T08:44:15.976Z,85
2016-12-09T08:45:16.015Z,80
2016-12-09T08:46:16.255Z,80
2016-12-09T08:47:16.286Z,75
2016-12-09T08:48:15.908Z,70
2016-12-09T08:49:15.892Z,65
2016-12-09T08:50:16.187Z,60
2016-12-09T08:51:16.168Z,60
2016-12-09T08:52:16.239Z,60
2016-12-09T08:53:15.831Z,60
2016-12-09T08:54:15.825Z,55
2016-12-09T08:55:15.805Z,60
2016-12-09T08:56:15.785Z,55
2016-12-09T08:57:15.780Z,55
2016-12-09T08:58:15.745Z,55
2016-12-09T08:59:16.046Z,55
2016-12-09T09:00:16.049Z,55
2016-12-09T09:01:15.703Z,55
2016-12-09T09:02:15.747Z,50
2016-12-09T09:03:15.670Z,50
2016-12-09T09:04:15.656Z,50
2016-12-09T09:05:15.635Z,50
2016-12-09T09:06:15.619Z,50
2016-12-09T09:07:15.931Z,60
2016-12-09T09:08:15.594Z,60
2016-12-09T09:09:15.892Z,60
2016-12-09T09:10:15.555Z,60
2016-12-09T09:11:15.849Z,60
2016-12-09T09:12:15.835Z,60
2016-12-09T09:13:15.504Z,55
2016-12-09T09:14:15.495Z,50
2016-12-09T09:15:15.474Z,50
2016-12-09T09:16:15.779Z,50
2016-12-09T09:17:15.472Z,50
2016-12-09T09:18:15.444Z,45
2016-12-09T09:19:15.747Z,45
2016-12-09T09:20:15.712Z,45
2016-12-09T09:21:15.379Z,50
2016-12-09T09:22:15.354Z,50
2016-12-09T09:23:15.654Z,55
2016-12-09T09:24:15.330Z,55
2016-12-09T09:25:15.353Z,55
2016-12-09T09:26:15.294Z,60
2016-12-09T09:27:15.613Z,65
2016-12-09T09:28:16.252Z,65
2016-12-09T09:29:15.568Z,60
2016-12-09T09:30:15.569Z,65
2016-12-09T09:31:15.562Z,65
2016-12-09T09:32:15.202Z,70
2016-12-09T09:33:15.183Z,75
2016-12-09T09:34:15.163Z,70
2016-12-09T09:35:15.157Z,70
2016-12-09T09:36:15.140Z,65
2016-12-09T09:37:15.744Z,65
2016-12-09T09:38:15.106Z,70
2016-12-09T09:39:15.405Z,60
2016-12-09T09:40:15.066Z,60
2016-12-09T09:41:15.055Z,60
2016-12-09T09:42:15.351Z,60
2016-12-09T09:43:15.023Z,55
2016-12-09T09:44:15.031Z,60
2016-12-09T09:45:15.319Z,60
2016-12-09T09:46:15.008Z,55
2016-12-09T09:47:14.967Z,55
2016-12-09T09:48:15.319Z,55
2016-12-09T09:49:14.928Z,50
2016-12-09T09:50:14.920Z,45
2016-12-09T09:51:14.890Z,50
2016-12-09T09:52:15.196Z,50
2016-12-09T09:53:14.863Z,55
2016-12-09T09:54:14.857Z,55
2016-12-09T09:55:14.832Z,55
2016-12-09T09:56:15.755Z,55
2016-12-09T09:57:15.115Z,55
2016-12-09T09:58:14.788Z,55
2016-12-09T09:59:14.764Z,55
2016-12-09T10:00:15.096Z,60
2016-12-09T10:01:15.054Z,55
2016-12-09T10:02:14.717Z,60
2016-12-09T10:03:14.734Z,60
2016-12-09T10:04:15.004Z,65
2016-12-09T10:05:14.715Z,65
2016-12-09T10:06:14.679Z,70
2016-12-09T10:07:15.001Z,70
2016-12-09T10:08:15.256Z,65
2016-12-09T10:09:14.940Z,60
2016-12-09T10:10:15.441Z,60
2016-12-09T10:11:14.699Z,60
2016-12-09T10:12:14.563Z,60
2016-12-09T10:13:14.711Z,60
2016-12-09T10:14:14.545Z,60
2016-12-09T10:15:14.565Z,70
2016-12-09T10:16:14.548Z,65
2016-12-09T10:17:14.818Z,55
2016-12-09T10:18:15.118Z,65
2016-12-09T10:19:14.465Z,65
2016-12-09T10:20:14.760Z,65
2016-12-09T10:21:15.052Z,65
2016-12-09T10:22:14.726Z,60
2016-12-09T10:23:14.396Z,55
2016-12-09T10:24:14.380Z,55
2016-12-09T10:25:14.676Z,55
2016-12-09T10:26:14.354Z,45
2016-12-09T10:27:14.340Z,45
2016-12-09T10:28:14.630Z,60
2016-12-09T10:29:14.978Z,65
2016-12-09T10:30:14.910Z,60
2016-12-09T10:31:14.271Z,65
2016-12-09T10:32:14.252Z,65
2016-12-09T10:33:14.579Z,65
2016-12-09T10:34:14.538Z,75
2016-12-09T10:35:14.198Z,85
2016-12-09T10:36:14.819Z,85
2016-12-09T10:37:14.177Z,80
2016-12-09T10:38:14.160Z,90
2016-12-09T10:39:14.143Z,90
2016-12-09T10:40:14.441Z,85
2016-12-09T10:41:14.121Z,85
2016-12-09T10:42:14.094Z,100
2016-12-09T10:43:14.092Z,90
2016-12-09T10:44:14.388Z,85
2016-12-09T10:45:14.394Z,90
2016-12-09T10:46:14.029Z,80
2016-12-09T10:47:14.036Z,90
2016-12-09T10:48:14.008Z,85
2016-12-09T10:49:13.981Z,85
2016-12-09T10:50:13.967Z,90
2016-12-09T10:51:13.952Z,90
2016-12-09T10:52:13.937Z,90
2016-12-09T10:53:14.245Z,70
2016-12-09T10:54:13.911Z,75
2016-12-09T10:55:14.569Z,80
2016-12-09T10:56:13.881Z,75
2016-12-09T10:57:13.862Z,80
2016-12-09T10:58:14.160Z,80
2016-12-09T10:59:13.841Z,85
2016-12-09T11:00:14.131Z,80
2016-12-09T11:01:14.157Z,90
2016-12-09T11:02:13.778Z,95
2016-12-09T11:03:13.766Z,95
2016-12-09T11:04:13.758Z,90
2016-12-09T11:05:13.749Z,95
2016-12-09T11:06:14.040Z,85
2016-12-09T11:07:13.715Z,80
2016-12-09T11:08:14.014Z,85
2016-12-09T11:09:13.727Z,85
2016-12-09T11:10:13.985Z,85
2016-12-09T11:11:13.966Z,85
2016-12-09T11:12:14.262Z,90
2016-12-09T11:13:13.938Z,100
2016-12-09T11:14:13.920Z,90
2016-12-09T11:15:13.905Z,75
2016-12-09T11:16:13.574Z,65
2016-12-09T11:17:13.556Z,70
2016-12-09T11:18:13.855Z,80
2016-12-09T11:19:13.851Z,75
2016-12-09T11:20:13.823Z,70
2016-12-09T11:21:13.838Z,75
2016-12-09T11:22:13.798Z,80
2016-12-09T11:23:13.466Z,75
2016-12-09T11:24:14.074Z,80
2016-12-09T11:25:13.439Z,75
2016-12-09T11:26:13.731Z,60
2016-12-09T11:27:13.712Z,60
2016-12-09T11:28:13.698Z,60
2016-12-09T11:29:13.695Z,60
2016-12-09T11:30:13.670Z,60
2016-12-09T11:31:13.658Z,65
2016-12-09T11:32:14.276Z,65
2016-12-09T11:33:13.320Z,70
2016-12-09T11:34:13.611Z,70
2016-12-09T11:35:13.280Z,60
2016-12-09T11:36:13.262Z,55
2016-12-09T11:37:13.251Z,60
2016-12-09T11:38:13.238Z,60
2016-12-09T11:39:13.230Z,60
2016-12-09T11:40:14.202Z,60
2016-12-09T11:41:13.219Z,60
2016-12-09T11:42:13.179Z,60
2016-12-09T11:43:13.489Z,55
2016-12-09T11:44:13.142Z,60
2016-12-09T11:45:13.443Z,60
2016-12-09T11:46:13.427Z,60
2016-12-09T11:47:13.425Z,55
2016-12-09T11:48:13.085Z,50
2016-12-09T11:49:13.107Z,50
2016-12-09T11:50:13.065Z,50
2016-12-09T11:51:13.361Z,45
2016-12-09T11:52:13.391Z,40
2016-12-09T11:53:13.011Z,45
2016-12-09T11:54:13.386Z,45
2016-12-09T11:55:13.295Z,45
2016-12-09T11:56:12.967Z,55
2016-12-09T11:57:13.273Z,60
2016-12-09T11:58:13.560Z,55
2016-12-09T11:59:13.232Z,65
2016-12-09T12:00:12.900Z,70
2016-12-09T12:01:12.891Z,75
2016-12-09T12:02:12.870Z,70
2016-12-09T12:03:12.851Z,65
2016-12-09T12:04:12.838Z,55
2016-12-09T12:05:12.820Z,55
2016-12-09T12:06:12.812Z,55
2016-12-09T12:07:12.796Z,55
2016-12-09T12:08:13.095Z,55
2016-12-09T12:09:13.075Z,75
2016-12-09T12:10:12.957Z,75
2016-12-09T12:11:13.361Z,65
2016-12-09T12:12:12.726Z,70
2016-12-09T12:13:12.707Z,90
2016-12-09T12:14:12.685Z,90
2016-12-09T12:15:12.679Z,100
2016-12-09T12:16:12.966Z,85
2016-12-09T12:17:12.959Z,85
2016-12-09T12:18:12.936Z,95
2016-12-09T12:19:13.239Z,100
2016-12-09T12:20:12.609Z,85
2016-12-09T12:21:12.577Z,95
2016-12-09T12:22:12.564Z,100
2016-12-09T12:23:12.545Z,90
2016-12-09T12:24:12.561Z,95
2016-12-09T12:25:13.147Z,95
2016-12-09T12:26:12.502Z,95
2016-12-09T12:27:13.115Z,85
2016-12-09T12:28:12.473Z,85
2016-12-09T12:29:12.785Z,90
2016-12-09T12:30:12.758Z,90
2016-12-09T12:31:12.758Z,90
2016-12-09T12:32:12.427Z,85
2016-12-09T12:33:12.400Z,80
2016-12-09T12:34:12.386Z,80
2016-12-09T12:35:12.367Z,75
2016-12-09T12:36:12.666Z,65
2016-12-09T12:37:12.389Z,55
2016-12-09T12:38:12.321Z,40
2016-12-09T12:39:12.307Z,45
2016-12-09T12:40:12.291Z,45
2016-12-09T12:41:12.587Z,40
2016-12-09T12:42:12.266Z,35
2016-12-09T12:43:12.558Z,35
2016-12-09T12:44:12.240Z,30
2016-12-09T12:45:12.224Z,30
2016-12-09T12:46:12.207Z,35
2016-12-09T12:47:12.393Z,45
2016-12-09T12:48:12.176Z,55
2016-12-09T12:49:12.501Z,55
2016-12-09T12:50:12.143Z,60
2016-12-09T12:51:12.140Z,55
2016-12-09T12:52:12.111Z,70
2016-12-09T12:53:12.128Z,65
2016-12-09T12:54:12.092Z,65
2016-12-09T12:55:12.063Z,55
2016-12-09T12:56:12.473Z,50
2016-12-09T12:57:12.032Z,50
2016-12-09T12:58:12.031Z,65
2016-12-09T12:59:12.004Z,75
2016-12-09T13:00:11.999Z,80
2016-12-09T13:01:11.978Z,80
2016-12-09T13:02:12.657Z,80
2016-12-09T13:03:11.950Z,95
2016-12-09T13:04:12.666Z,85
2016-12-09T13:05:12.251Z,75
2016-12-09T13:06:11.905Z,75
2016-12-09T13:07:11.880Z,75
2016-12-09T13:08:11.865Z,60
2016-12-09T13:09:12.540Z,55
2016-12-09T13:10:11.832Z,55
2016-12-09T13:11:11.824Z,50
2016-12-09T13:12:11.862Z,45
2016-12-09T13:13:12.114Z,60
2016-12-09T13:14:12.123Z,60
2016-12-09T13:15:11.764Z,60
2016-12-09T13:16:11.746Z,50
2016-12-09T13:17:12.049Z,45
2016-12-09T13:18:12.348Z,45
2016-12-09T13:19:11.736Z,45
2016-12-09T13:20:11.693Z,40
2016-12-09T13:21:11.988Z,40
2016-12-09T13:22:11.662Z,35
2016-12-09T13:23:11.655Z,30
2016-12-09T13:24:11.636Z,35
2016-12-09T13:25:11.946Z,45
2016-12-09T13:26:11.594Z,50
2016-12-09T13:27:11.594Z,50
2016-12-09T13:28:11.569Z,45
2016-12-09T13:29:11.642Z,45
2016-12-09T13:30:11.543Z,45
2016-12-09T13:31:11.834Z,40
2016-12-09T13:32:11.825Z,40
2016-12-09T13:33:11.503Z,45
2016-12-09T13:34:11.484Z,55
2016-12-09T13:35:11.467Z,55
2016-12-09T13:36:11.813Z,50
2016-12-09T13:37:11.438Z,50
2016-12-09T13:38:11.420Z,45
2016-12-09T13:39:11.743Z,45
2016-12-09T13:40:11.391Z,45
2016-12-09T13:41:11.378Z,45
2016-12-09T13:42:11.673Z,45
2016-12-09T13:43:11.350Z,35
2016-12-09T13:44:11.646Z,35
2016-12-09T13:45:11.315Z,35
2016-12-09T13:46:11.317Z,35
2016-12-09T13:47:11.290Z,35
2016-12-09T13:48:11.830Z,45
2016-12-09T13:49:11.268Z,50
2016-12-09T13:50:11.567Z,40
2016-12-09T13:51:11.856Z,40
2016-12-09T13:52:11.208Z,40
2016-12-09T13:53:11.201Z,35
2016-12-09T13:54:11.185Z,35
2016-12-09T13:55:11.171Z,35
2016-12-09T13:56:11.468Z,35
2016-12-09T13:57:11.173Z,35
2016-12-09T13:58:11.140Z,35
2016-12-09T13:59:11.151Z,35
2016-12-09T14:00:11.423Z,35
2016-12-09T14:01:11.723Z,30
2016-12-09T14:02:11.716Z,30
2016-12-09T14:03:11.069Z,25
2016-12-09T14:04:11.061Z,30
2016-12-09T14:05:11.041Z,30
2016-12-09T14:06:11.341Z,35
2016-12-09T14:07:11.019Z,35
2016-12-09T14:08:11.624Z,30
2016-12-09T14:09:10.995Z,25
2016-12-09T14:10:11.191Z,20
2016-12-09T14:11:11.279Z,20
2016-12-09T14:12:11.260Z,20
2016-12-09T14:13:10.917Z,20
2016-12-09T14:14:11.543Z,25
2016-12-09T14:15:10.892Z,25
2016-12-09T14:16:10.884Z,25
2016-12-09T14:17:10.863Z,25
2016-12-09T14:18:10.849Z,25
2016-12-09T14:19:11.140Z,20
2016-12-09T14:20:11.638Z,20
2016-12-09T14:21:11.115Z,15
2016-12-09T14:22:10.791Z,35
2016-12-09T14:23:10.776Z,40
2016-12-09T14:24:11.387Z,60
2016-12-09T14:25:11.083Z,55
2016-12-09T14:26:11.037Z,55
2016-12-09T14:27:11.033Z,50
2016-12-09T14:28:11.022Z,55
2016-12-09T14:29:10.744Z,50
2016-12-09T14:30:11.731Z,40
2016-12-09T14:31:10.877Z,40
2016-12-09T14:32:11.005Z,45